Time;durP1;ratioP1;P1;durP2;ratioP2;P2;SDS_P1;SDS_P2;PMS_P1;PMS_P2;Temp;Humidity;BMP_temperature;BMP_pressure;BME280_temperature;BME280_humidity;BME280_pressure;Samples;Min_cycle;Max_cycle;Signal;HPM_P1;HPM_P2
2022/12/05 00:00:17;;;;;;;25.58;16.52;;;4.40;99.90;;;;;;5090119;28;20044;-69
2022/12/05 00:02:43;;;;;;;30.50;16.60;;;4.40;99.90;;;;;;5093558;28;20048;-70
2022/12/05 00:05:10;;;;;;;27.13;16.05;;;4.40;99.90;;;;;;5090364;28;20039;-69
2022/12/05 00:07:36;;;;;;;25.30;16.10;;;4.50;99.90;;;;;;5089992;28;20036;-69
2022/12/05 00:10:03;;;;;;;26.25;15.32;;;4.50;99.90;;;;;;5087516;28;20096;-69
2022/12/05 00:12:29;;;;;;;27.33;15.38;;;4.50;99.90;;;;;;5089820;28;20097;-69
2022/12/05 00:14:54;;;;;;;26.48;15.73;;;4.50;99.90;;;;;;5072925;28;20486;-69
2022/12/05 00:17:20;;;;;;;24.88;15.38;;;4.50;99.90;;;;;;5090169;28;20040;-70
2022/12/05 00:19:46;;;;;;;25.20;15.30;;;4.50;99.90;;;;;;5094382;28;20039;-70
2022/12/05 00:22:11;;;;;;;24.42;15.23;;;4.50;99.90;;;;;;5089797;28;20048;-69
2022/12/05 00:24:38;;;;;;;25.65;15.32;;;4.60;99.90;;;;;;5090067;28;20043;-69
2022/12/05 00:27:04;;;;;;;24.50;15.40;;;4.60;99.90;;;;;;5089618;28;20040;-70
2022/12/05 00:29:29;;;;;;;24.27;14.68;;;4.60;99.90;;;;;;5089761;28;20054;-69
2022/12/05 00:31:55;;;;;;;25.63;14.40;;;4.60;99.90;;;;;;5089241;28;20080;-70
2022/12/05 00:34:21;;;;;;;25.88;15.38;;;4.60;99.90;;;;;;5072615;28;20439;-70
2022/12/05 00:36:46;;;;;;;23.77;14.68;;;4.60;99.90;;;;;;5090883;28;20067;-69
2022/12/05 00:39:15;;;;;;;22.52;14.52;;;4.60;99.90;;;;;;5072331;28;20044;-69
2022/12/05 00:41:41;;;;;;;23.48;14.85;;;4.60;99.90;;;;;;5072776;28;20136;-70
2022/12/05 00:44:09;;;;;;;23.20;14.27;;;4.60;99.90;;;;;;5089707;28;20035;-69
2022/12/05 00:46:35;;;;;;;22.02;14.45;;;4.60;99.90;;;;;;5089556;28;20100;-71
2022/12/05 00:49:02;;;;;;;21.17;13.02;;;4.60;99.90;;;;;;5072346;28;20134;-68
2022/12/05 00:51:34;;;;;;;21.80;13.77;;;4.60;99.90;;;;;;5089306;28;20860;-70
2022/12/05 00:54:03;;;;;;;23.85;14.95;;;4.60;99.90;;;;;;5091391;28;20055;-70
2022/12/05 00:56:30;;;;;;;21.00;14.57;;;4.60;99.90;;;;;;5089192;28;20115;-69
2022/12/05 00:58:57;;;;;;;23.58;14.52;;;4.60;99.90;;;;;;5089161;28;20038;-69
2022/12/05 01:01:35;;;;;;;22.40;14.23;;;4.60;99.90;;;;;;5123342;27;20093;-69
2022/12/05 01:04:09;;;;;;;21.27;13.38;;;4.60;99.90;;;;;;5072185;28;20044;-69
2022/12/05 01:06:35;;;;;;;25.17;13.85;;;4.70;99.90;;;;;;5122650;27;20040;-70
2022/12/05 01:09:01;;;;;;;22.38;14.07;;;4.70;99.90;;;;;;5090193;28;20068;-70
2022/12/05 01:11:28;;;;;;;23.23;14.45;;;4.70;99.90;;;;;;5089113;28;20057;-70
2022/12/05 01:13:54;;;;;;;25.35;14.80;;;4.70;99.90;;;;;;5087064;28;20027;-70
2022/12/05 01:16:28;;;;;;;23.25;14.63;;;4.60;99.90;;;;;;5102770;28;20035;-70
2022/12/05 01:18:55;;;;;;;25.27;15.32;;;4.70;99.90;;;;;;5087096;28;20028;-69
2022/12/05 01:21:21;;;;;;;22.95;14.30;;;4.70;99.90;;;;;;5121211;28;20036;-69
2022/12/05 01:23:47;;;;;;;23.35;14.52;;;4.70;99.90;;;;;;5090437;28;20093;-69
2022/12/05 01:26:15;;;;;;;25.00;14.93;;;4.70;99.90;;;;;;5070513;28;20483;-69
2022/12/05 01:28:41;;;;;;;25.48;15.73;;;4.70;99.90;;;;;;5070491;28;20391;-71
2022/12/05 01:31:21;;;;;;;26.00;16.20;;;4.70;99.90;;;;;;5122469;28;20445;-68
2022/12/05 01:33:47;;;;;;;25.70;16.40;;;4.70;99.90;;;;;;5088556;28;20035;-69
2022/12/05 01:36:13;;;;;;;25.67;16.27;;;4.70;99.90;;;;;;5122589;28;20040;-69
2022/12/05 01:38:40;;;;;;;25.40;15.80;;;4.70;99.90;;;;;;5088215;28;20374;-69
2022/12/05 01:41:09;;;;;;;28.17;16.70;;;4.70;99.90;;;;;;5122611;28;20039;-69
2022/12/05 01:44:05;;;;;;;24.95;15.82;;;4.70;99.90;;;;;;5089643;28;20051;-70
2022/12/05 01:46:36;;;;;;;25.85;16.08;;;4.80;99.90;;;;;;5088503;28;20094;-69
2022/12/05 01:49:22;;;;;;;26.88;16.27;;;4.70;99.90;;;;;;5088245;28;20048;-70
2022/12/05 01:51:52;;;;;;;25.92;16.27;;;4.70;99.90;;;;;;5071449;28;20119;-71
2022/12/05 01:54:18;;;;;;;29.48;17.88;;;4.80;99.90;;;;;;5088309;28;20455;-69
2022/12/05 01:56:52;;;;;;;25.17;15.85;;;4.70;99.90;;;;;;5088064;28;20040;-69
2022/12/05 01:59:20;;;;;;;28.92;17.42;;;4.70;99.90;;;;;;5121874;28;20036;-69
2022/12/05 02:01:45;;;;;;;31.63;18.25;;;4.70;99.90;;;;;;5072922;28;20127;-68
2022/12/05 02:04:12;;;;;;;29.95;17.90;;;4.70;99.90;;;;;;5087933;28;20114;-68
2022/12/05 02:06:37;;;;;;;33.25;19.05;;;4.70;99.90;;;;;;5122578;28;20066;-68
2022/12/05 02:09:04;;;;;;;30.52;18.05;;;4.70;99.90;;;;;;5071113;28;20039;-69
2022/12/05 02:11:31;;;;;;;32.13;18.08;;;4.70;99.90;;;;;;5070981;28;20402;-69
2022/12/05 02:14:50;;;;;;;30.48;18.38;;;4.70;99.90;;;;;;5122423;28;20534;-69
2022/12/05 02:17:47;;;;;;;26.25;17.20;;;4.80;99.90;;;;;;5033278;28;20559;-70
2022/12/05 02:20:42;;;;;;;32.05;17.52;;;4.80;99.90;;;;;;5030334;28;20099;-69
2022/12/05 02:23:19;;;;;;;28.30;17.55;;;4.70;99.90;;;;;;5032668;28;20049;-69
2022/12/05 02:26:06;;;;;;;30.52;18.00;;;4.80;99.90;;;;;;5031383;28;20041;-70
2022/12/05 02:28:44;;;;;;;32.17;18.33;;;4.80;99.90;;;;;;5033841;28;20483;-70
2022/12/05 02:31:26;;;;;;;34.97;19.35;;;4.80;99.90;;;;;;5036109;28;20103;-70
2022/12/05 02:34:03;;;;;;;30.60;18.67;;;4.80;99.90;;;;;;5033756;28;20526;-69
2022/12/05 02:37:04;;;;;;;30.52;18.20;;;4.80;99.90;;;;;;5067212;28;20288;-69
2022/12/05 02:39:53;;;;;;;30.83;18.27;;;4.80;99.90;;;;;;5013836;28;20057;-70
2022/12/05 02:42:49;;;;;;;33.55;19.00;;;4.80;99.90;;;;;;5014731;28;20073;-69
2022/12/05 02:45:17;;;;;;;33.33;19.02;;;4.80;99.90;;;;;;4996391;28;20079;-70
2022/12/05 02:47:49;;;;;;;34.08;20.08;;;4.80;99.90;;;;;;5046746;28;20080;-69
2022/12/05 02:50:21;;;;;;;35.67;19.95;;;4.80;99.90;;;;;;5035356;28;20056;-69
2022/12/05 02:52:48;;;;;;;33.72;19.13;;;4.80;99.90;;;;;;5035443;28;20087;-69
2022/12/05 02:55:16;;;;;;;31.13;18.38;;;4.90;99.90;;;;;;5053262;28;20052;-69
2022/12/05 02:57:47;;;;;;;34.72;20.17;;;4.90;99.90;;;;;;5053435;28;20048;-69
2022/12/05 03:00:14;;;;;;;34.63;20.25;;;4.90;99.90;;;;;;5053389;28;20040;-68
2022/12/05 03:02:40;;;;;;;34.05;19.70;;;4.90;99.90;;;;;;5053485;28;20052;-69
2022/12/05 03:05:39;;;;;;;34.85;20.02;;;4.90;99.90;;;;;;5053091;28;20044;-68
2022/12/05 03:08:11;;;;;;;34.35;19.67;;;4.90;99.90;;;;;;4955755;28;20646;-69
2022/12/05 03:10:39;;;;;;;33.95;19.33;;;4.90;99.90;;;;;;4972696;28;20059;-69
2022/12/05 03:13:19;;;;;;;36.63;20.10;;;4.90;99.90;;;;;;4954787;28;20391;-69
2022/12/05 03:15:51;;;;;;;37.17;20.98;;;4.90;99.90;;;;;;4961589;28;20050;-69
2022/12/05 03:18:25;;;;;;;39.75;21.55;;;4.90;99.90;;;;;;4974516;28;20093;-70
2022/12/05 03:21:17;;;;;;;37.55;21.17;;;4.90;99.90;;;;;;5006685;28;20046;-69
2022/12/05 03:23:52;;;;;;;39.80;22.48;;;4.90;99.90;;;;;;5006931;28;20053;-69
2022/12/05 03:26:47;;;;;;;36.70;20.85;;;4.90;99.90;;;;;;5006084;28;20077;-69
2022/12/05 03:29:50;;;;;;;40.35;21.58;;;4.90;99.90;;;;;;5006710;28;20497;-69
2022/12/05 03:32:20;;;;;;;40.05;22.88;;;4.90;99.90;;;;;;5006433;28;20145;-68
2022/12/05 03:35:16;;;;;;;43.20;22.98;;;4.90;99.90;;;;;;4973797;28;20062;-70
2022/12/05 03:38:12;;;;;;;46.83;22.25;;;4.90;99.90;;;;;;5006001;28;20437;-68
2022/12/05 03:40:46;;;;;;;38.97;22.80;;;4.90;99.90;;;;;;4990225;28;20045;-69
2022/12/05 03:43:33;;;;;;;38.20;22.75;;;4.90;99.90;;;;;;4988240;28;20393;-70
2022/12/05 03:46:13;;;;;;;39.15;22.02;;;4.90;99.90;;;;;;5089452;28;20036;-69
2022/12/05 03:49:11;;;;;;;38.80;20.77;;;5.00;99.90;;;;;;5090246;28;20040;-69
2022/12/05 03:51:51;;;;;;;40.72;21.60;;;5.00;99.90;;;;;;5089646;28;20044;-69
2022/12/05 03:54:26;;;;;;;41.08;21.83;;;5.00;99.90;;;;;;5071602;28;20085;-68
2022/12/05 03:57:19;;;;;;;39.17;21.45;;;5.00;99.90;;;;;;5088372;28;20513;-68
2022/12/05 03:59:45;;;;;;;36.55;20.13;;;5.00;99.90;;;;;;5087302;28;20434;-69
2022/12/05 04:02:18;;;;;;;40.35;21.55;;;5.00;99.90;;;;;;5090065;28;20048;-69
2022/12/05 04:05:10;;;;;;;36.50;19.83;;;5.00;99.90;;;;;;5072674;28;20044;-69
2022/12/05 04:07:39;;;;;;;38.67;20.60;;;5.00;99.90;;;;;;5123456;27;20371;-69
2022/12/05 04:10:13;;;;;;;34.35;18.88;;;5.00;99.90;;;;;;5089917;28;20541;-69
2022/12/05 04:12:43;;;;;;;36.58;20.33;;;5.00;99.90;;;;;;5089653;28;20115;-68
2022/12/05 04:15:13;;;;;;;33.63;19.55;;;5.00;99.90;;;;;;5089592;28;20081;-70
2022/12/05 04:17:54;;;;;;;32.90;18.92;;;5.00;99.90;;;;;;5090111;28;20040;-69
2022/12/05 04:23:13;;;;;;;32.53;17.02;;;5.00;99.90;;;;;;5089578;28;20371;-70
2022/12/05 04:25:47;;;;;;;30.75;17.48;;;5.00;99.90;;;;;;5072496;28;20055;-71
2022/12/05 04:28:32;;;;;;;28.65;17.52;;;5.00;99.90;;;;;;5089395;28;20043;-69
2022/12/05 04:31:12;;;;;;;27.90;16.98;;;5.00;99.90;;;;;;5089264;28;20043;-68
2022/12/05 04:33:45;;;;;;;30.33;16.15;;;5.10;99.90;;;;;;5089487;28;20036;-68
2022/12/05 04:36:14;;;;;;;26.23;15.38;;;5.00;99.90;;;;;;5089588;28;20517;-70
2022/12/05 04:38:58;;;;;;;22.73;14.75;;;5.10;99.90;;;;;;5123369;27;20502;-70
2022/12/05 04:41:37;;;;;;;23.70;14.43;;;5.10;99.90;;;;;;5089446;28;20052;-68
2022/12/05 04:44:10;;;;;;;24.73;15.05;;;5.10;99.90;;;;;;5089552;28;20039;-69
2022/12/05 04:46:39;;;;;;;22.50;13.65;;;5.10;99.90;;;;;;5088896;28;20047;-68
2022/12/05 04:49:08;;;;;;;19.65;13.50;;;5.10;99.90;;;;;;5071658;28;20036;-69
2022/12/05 04:51:37;;;;;;;21.27;12.65;;;5.10;99.90;;;;;;5090191;28;20052;-70
2022/12/05 04:54:14;;;;;;;21.35;12.98;;;5.10;99.90;;;;;;5088860;28;20083;-68
2022/12/05 04:56:41;;;;;;;19.95;12.73;;;5.10;99.90;;;;;;5123064;27;20051;-69
2022/12/05 04:59:07;;;;;;;19.15;12.77;;;5.10;99.90;;;;;;5071999;28;20044;-69
2022/12/05 05:01:47;;;;;;;18.70;12.13;;;5.10;99.90;;;;;;5089053;28;20101;-69
2022/12/05 05:04:20;;;;;;;17.27;12.77;;;5.10;99.90;;;;;;5088763;28;20401;-68
2022/12/05 05:06:46;;;;;;;16.67;11.60;;;5.10;99.90;;;;;;5071175;28;20154;-70
2022/12/05 05:09:11;;;;;;;16.83;12.07;;;5.10;99.90;;;;;;5087452;28;20123;-69
2022/12/05 05:11:37;;;;;;;19.33;11.88;;;5.10;99.90;;;;;;5086568;28;20040;-70
2022/12/05 05:14:03;;;;;;;17.67;12.35;;;5.20;99.90;;;;;;5072133;28;20048;-69
2022/12/05 05:16:35;;;;;;;16.50;11.25;;;5.20;99.90;;;;;;5083826;28;20098;-69
2022/12/05 05:19:00;;;;;;;16.85;11.10;;;5.20;99.90;;;;;;5071982;28;20131;-69
2022/12/05 05:21:38;;;;;;;15.73;10.90;;;5.20;99.90;;;;;;5086206;28;20138;-69
2022/12/05 05:24:04;;;;;;;14.93;10.30;;;5.20;99.90;;;;;;5122340;28;20418;-68
2022/12/05 05:26:33;;;;;;;13.85;10.48;;;5.30;99.90;;;;;;5088819;28;20492;-69
2022/12/05 05:28:59;;;;;;;15.73;10.43;;;5.20;99.90;;;;;;5088506;28;20126;-69
2022/12/05 05:31:25;;;;;;;13.70;9.60;;;5.30;99.90;;;;;;5088596;28;20542;-69
2022/12/05 05:33:53;;;;;;;13.65;10.52;;;5.30;99.90;;;;;;5088400;28;20081;-69
2022/12/05 05:36:20;;;;;;;15.65;9.82;;;5.30;99.90;;;;;;5088610;28;20067;-70
2022/12/05 05:38:48;;;;;;;13.48;9.73;;;5.30;99.90;;;;;;5071670;28;20035;-69
2022/12/05 05:41:25;;;;;;;12.98;9.20;;;5.30;99.90;;;;;;5089290;28;20046;-69
2022/12/05 05:43:52;;;;;;;10.75;8.27;;;5.30;99.90;;;;;;5086319;28;20094;-69
2022/12/05 05:46:21;;;;;;;10.98;8.45;;;5.30;99.90;;;;;;5088323;28;20043;-69
2022/12/05 05:48:47;;;;;;;10.23;7.60;;;5.30;99.90;;;;;;5071568;28;20064;-69
2022/12/05 05:51:14;;;;;;;10.55;7.68;;;5.40;99.90;;;;;;5070396;28;20048;-68
2022/12/05 05:53:39;;;;;;;7.72;6.45;;;5.40;99.90;;;;;;5069320;28;20152;-69
2022/12/05 05:56:08;;;;;;;7.75;6.43;;;5.40;99.90;;;;;;5088267;28;20131;-69
2022/12/05 05:58:35;;;;;;;7.65;5.55;;;5.40;99.90;;;;;;5122076;28;20109;-70
2022/12/05 06:01:04;;;;;;;7.20;6.00;;;5.40;99.90;;;;;;5091781;28;20471;-70
2022/12/05 06:03:30;;;;;;;6.88;5.68;;;5.40;99.90;;;;;;5092614;28;20506;-69
2022/12/05 06:05:57;;;;;;;7.78;5.72;;;5.40;99.90;;;;;;5092280;28;20086;-69
2022/12/05 06:08:23;;;;;;;5.97;5.07;;;5.40;99.90;;;;;;5092076;28;20044;-70
2022/12/05 06:10:48;;;;;;;6.43;5.18;;;5.40;99.90;;;;;;5075063;28;20479;-68
2022/12/05 06:13:14;;;;;;;7.40;5.07;;;5.40;99.90;;;;;;5092227;28;20036;-70
2022/12/05 06:15:40;;;;;;;6.00;4.68;;;5.40;99.90;;;;;;5093082;28;20044;-69
2022/12/05 06:18:05;;;;;;;6.38;5.22;;;5.40;99.90;;;;;;5091998;28;20047;-69
2022/12/05 06:20:31;;;;;;;5.85;5.13;;;5.40;99.90;;;;;;5091572;28;20402;-69
2022/12/05 06:22:56;;;;;;;5.90;4.88;;;5.40;99.90;;;;;;5091583;28;20039;-69
2022/12/05 06:25:22;;;;;;;5.90;4.95;;;5.40;99.90;;;;;;5090119;28;20048;-71
2022/12/05 06:27:48;;;;;;;5.28;4.78;;;5.40;99.90;;;;;;5092073;28;20040;-69
2022/12/05 06:30:13;;;;;;;6.35;5.10;;;5.40;99.90;;;;;;5093475;28;20052;-69
2022/12/05 06:32:39;;;;;;;5.50;4.85;;;5.40;99.90;;;;;;5090706;28;20382;-69
2022/12/05 06:35:14;;;;;;;5.97;5.05;;;5.40;99.90;;;;;;5125533;27;20043;-69
2022/12/05 06:37:43;;;;;;;6.57;5.47;;;5.40;99.90;;;;;;5074513;28;20031;-69
2022/12/05 06:40:10;;;;;;;5.78;5.10;;;5.40;99.90;;;;;;5125685;27;20042;-68
2022/12/05 06:42:36;;;;;;;6.07;5.18;;;5.40;99.90;;;;;;5121166;27;20487;-70
2022/12/05 06:45:02;;;;;;;6.25;5.30;;;5.40;99.90;;;;;;5073193;28;20028;-69
2022/12/05 06:47:28;;;;;;;5.53;4.97;;;5.50;99.90;;;;;;5091171;28;20122;-70
2022/12/05 06:49:53;;;;;;;6.38;5.32;;;5.50;99.90;;;;;;5090212;28;20453;-68
2022/12/05 06:52:19;;;;;;;5.75;5.18;;;5.40;99.90;;;;;;5086976;28;20052;-69
2022/12/05 06:54:45;;;;;;;6.15;5.32;;;5.40;99.90;;;;;;5092333;28;20048;-69
2022/12/05 06:57:12;;;;;;;5.57;4.97;;;5.50;99.90;;;;;;5091314;28;20040;-70
2022/12/05 06:59:37;;;;;;;6.75;5.30;;;5.50;99.90;;;;;;5089018;28;20037;-68
2022/12/05 07:02:06;;;;;;;5.13;4.60;;;5.50;99.90;;;;;;5091431;28;20036;-69
2022/12/05 07:04:33;;;;;;;5.75;5.00;;;5.50;99.90;;;;;;5091263;28;20047;-68
2022/12/05 07:07:00;;;;;;;6.85;5.28;;;5.40;99.90;;;;;;5085340;28;20482;-68
2022/12/05 07:09:47;;;;;;;6.50;5.53;;;5.40;99.90;;;;;;5089306;28;20060;-68
2022/12/05 07:12:14;;;;;;;5.45;4.68;;;5.40;99.90;;;;;;5119223;27;20091;-68
2022/12/05 07:14:40;;;;;;;5.35;4.82;;;5.40;99.90;;;;;;5093371;28;20044;-68
2022/12/05 07:17:06;;;;;;;5.88;4.40;;;5.40;99.90;;;;;;5090505;28;20573;-67
2022/12/05 07:19:31;;;;;;;4.85;4.05;;;5.40;99.90;;;;;;5091125;28;20123;-67
2022/12/05 07:21:57;;;;;;;5.10;4.03;;;5.40;99.90;;;;;;5090492;28;20042;-69
2022/12/05 07:24:23;;;;;;;4.43;4.03;;;5.40;99.90;;;;;;5091336;28;20035;-67
2022/12/05 07:26:48;;;;;;;5.18;3.90;;;5.40;99.90;;;;;;5084692;28;20088;-67
2022/12/05 07:29:14;;;;;;;6.32;4.00;;;5.50;99.90;;;;;;5092516;28;20039;-67
2022/12/05 07:31:39;;;;;;;6.03;4.22;;;5.50;99.90;;;;;;5088321;28;20669;-69
2022/12/05 07:34:05;;;;;;;5.53;4.18;;;5.50;99.90;;;;;;5091059;28;20035;-68
2022/12/05 07:36:31;;;;;;;4.72;3.72;;;5.40;99.90;;;;;;5090225;28;20423;-70
2022/12/05 07:38:58;;;;;;;4.60;4.03;;;5.50;99.90;;;;;;5074591;28;20028;-67
2022/12/05 07:41:26;;;;;;;4.70;4.15;;;5.50;99.90;;;;;;5092574;28;20066;-68
2022/12/05 07:43:53;;;;;;;4.40;3.95;;;5.50;99.90;;;;;;5090101;28;20052;-69
2022/12/05 07:46:19;;;;;;;5.85;4.18;;;5.50;99.90;;;;;;5073384;28;20380;-69
2022/12/05 07:48:46;;;;;;;4.70;3.78;;;5.50;99.90;;;;;;5089918;28;20034;-69
2022/12/05 07:51:12;;;;;;;6.22;4.80;;;5.40;99.90;;;;;;5090280;28;20093;-70
2022/12/05 07:53:40;;;;;;;4.90;4.10;;;5.50;99.90;;;;;;5086852;28;20052;-69
2022/12/05 07:56:08;;;;;;;6.78;4.45;;;5.50;99.90;;;;;;5090008;28;20043;-68
2022/12/05 07:58:34;;;;;;;5.07;4.30;;;5.50;99.90;;;;;;5091873;28;20043;-68
2022/12/05 08:01:11;;;;;;;5.72;4.38;;;5.50;99.90;;;;;;5123848;27;20047;-68
2022/12/05 08:03:37;;;;;;;6.10;4.60;;;5.50;99.90;;;;;;5089921;28;20047;-69
2022/12/05 08:06:05;;;;;;;6.60;4.68;;;5.50;99.90;;;;;;5091047;28;20086;-67
2022/12/05 08:08:30;;;;;;;6.53;5.07;;;5.50;99.90;;;;;;5121985;27;20375;-67
2022/12/05 08:11:01;;;;;;;7.07;4.85;;;5.50;99.90;;;;;;5087116;28;20051;-67
2022/12/05 08:13:28;;;;;;;5.72;4.95;;;5.50;99.90;;;;;;5088865;28;20042;-67
2022/12/05 08:15:53;;;;;;;6.63;5.40;;;5.50;99.90;;;;;;5089578;28;20498;-68
2022/12/05 08:18:19;;;;;;;6.20;5.18;;;5.50;99.90;;;;;;5089046;28;20581;-68
2022/12/05 08:20:44;;;;;;;5.90;4.78;;;5.50;99.90;;;;;;5071572;28;20062;-68
2022/12/05 08:23:10;;;;;;;7.00;5.15;;;5.60;99.90;;;;;;5089566;28;20058;-67
2022/12/05 08:25:36;;;;;;;10.15;5.47;;;5.60;99.90;;;;;;5088815;28;20035;-67
2022/12/05 08:28:01;;;;;;;7.63;5.53;;;5.60;99.90;;;;;;5089889;28;20457;-67
2022/12/05 08:30:27;;;;;;;6.72;5.32;;;5.60;99.90;;;;;;5087252;28;20051;-68
2022/12/05 08:32:53;;;;;;;6.95;5.45;;;5.60;99.90;;;;;;5106131;28;20043;-69
2022/12/05 08:35:18;;;;;;;8.65;6.15;;;5.60;99.90;;;;;;5088097;28;20431;-67
2022/12/05 08:37:44;;;;;;;9.52;5.90;;;5.60;99.90;;;;;;5118175;27;20092;-69
2022/12/05 08:40:10;;;;;;;9.23;6.07;;;5.60;99.90;;;;;;5064494;28;20101;-68
2022/12/05 08:42:35;;;;;;;12.35;6.95;;;5.60;99.90;;;;;;5087069;28;20035;-67
2022/12/05 08:45:02;;;;;;;11.45;6.40;;;5.60;99.90;;;;;;5088956;28;20043;-67
2022/12/05 08:47:28;;;;;;;10.38;6.38;;;5.60;99.90;;;;;;5121882;27;20051;-68
2022/12/05 08:49:53;;;;;;;10.77;6.00;;;5.60;99.90;;;;;;5089370;28;20122;-69
2022/12/05 08:52:21;;;;;;;7.97;6.25;;;5.60;99.90;;;;;;5068969;28;20237;-68
2022/12/05 08:54:47;;;;;;;8.43;6.10;;;5.60;99.90;;;;;;5087413;28;20044;-68
2022/12/05 08:57:13;;;;;;;9.35;6.13;;;5.60;99.90;;;;;;5122682;27;20135;-67
2022/12/05 08:59:38;;;;;;;9.65;6.30;;;5.60;99.90;;;;;;5085477;28;20090;-67
2022/12/05 09:02:04;;;;;;;9.25;6.35;;;5.60;99.90;;;;;;5085548;28;20334;-67
2022/12/05 09:04:30;;;;;;;7.88;6.13;;;5.60;99.90;;;;;;5088488;28;20111;-68
2022/12/05 09:06:55;;;;;;;8.23;5.85;;;5.60;99.90;;;;;;5088376;28;20036;-68
2022/12/05 09:09:21;;;;;;;8.02;5.70;;;5.60;99.90;;;;;;5089393;28;20406;-71
2022/12/05 09:11:49;;;;;;;10.02;6.75;;;5.60;99.90;;;;;;5088706;28;20032;-69
2022/12/05 09:14:16;;;;;;;8.57;6.40;;;5.60;99.90;;;;;;5088910;28;20111;-68
2022/12/05 09:16:43;;;;;;;9.77;6.10;;;5.60;99.90;;;;;;5089103;28;20047;-67
2022/12/05 09:19:12;;;;;;;10.98;5.93;;;5.60;99.90;;;;;;5070781;28;20040;-67
2022/12/05 09:21:38;;;;;;;10.02;6.38;;;5.60;99.90;;;;;;5089036;28;20569;-69
2022/12/05 09:24:03;;;;;;;9.20;5.55;;;5.60;99.90;;;;;;5088745;28;20042;-70
2022/12/05 09:26:29;;;;;;;8.98;5.82;;;5.60;99.90;;;;;;5088479;28;20110;-69
2022/12/05 09:28:55;;;;;;;9.85;6.00;;;5.60;99.90;;;;;;5088717;28;20032;-66
2022/12/05 09:31:23;;;;;;;10.48;5.97;;;5.60;99.90;;;;;;5088601;28;20036;-68
2022/12/05 09:33:51;;;;;;;8.82;5.90;;;5.70;99.90;;;;;;5089563;28;20531;-70
2022/12/05 09:36:22;;;;;;;10.73;6.47;;;5.70;99.90;;;;;;5092749;28;20071;-69
2022/12/05 09:38:48;;;;;;;9.13;5.57;;;5.70;99.90;;;;;;5093102;28;20448;-69
2022/12/05 09:42:07;;;;;;;8.93;6.13;;;5.70;99.90;;;;;;5092743;28;20055;-67
2022/12/05 09:44:45;;;;;;;8.13;5.65;;;5.70;99.90;;;;;;5075897;28;20093;-69
2022/12/05 09:47:25;;;;;;;9.88;5.80;;;5.60;99.90;;;;;;5092820;28;20110;-68
2022/12/05 09:50:15;;;;;;;11.07;6.03;;;5.60;99.90;;;;;;5076104;28;20097;-66
2022/12/05 09:52:48;;;;;;;10.40;5.78;;;5.60;99.90;;;;;;5094118;28;20044;-68
2022/12/05 09:55:17;;;;;;;7.88;5.82;;;5.60;99.90;;;;;;5130341;27;20122;-68
2022/12/05 09:57:55;;;;;;;11.63;6.18;;;5.60;99.90;;;;;;5095948;28;20039;-69
2022/12/05 10:00:21;;;;;;;8.68;5.78;;;5.60;99.90;;;;;;5130169;27;20053;-68
2022/12/05 10:03:01;;;;;;;7.80;5.90;;;5.60;99.90;;;;;;5095349;28;20040;-68
2022/12/05 10:05:46;;;;;;;7.50;5.20;;;5.60;99.90;;;;;;5112279;28;20048;-69
2022/12/05 10:08:40;;;;;;;9.23;6.25;;;5.60;99.90;;;;;;5095762;28;20075;-67
2022/12/05 10:11:17;;;;;;;8.27;5.57;;;5.60;99.90;;;;;;5129994;27;20036;-68
2022/12/05 10:14:01;;;;;;;8.98;6.20;;;5.60;99.90;;;;;;5077878;28;20469;-69
2022/12/05 10:16:33;;;;;;;8.18;5.60;;;5.60;99.90;;;;;;5095597;28;20082;-68
2022/12/05 10:19:11;;;;;;;8.18;5.57;;;5.60;99.90;;;;;;5129743;27;20427;-65
2022/12/05 10:21:50;;;;;;;9.45;5.80;;;5.60;99.90;;;;;;5126352;27;20382;-66
2022/12/05 10:24:41;;;;;;;8.68;6.00;;;5.60;99.90;;;;;;5093357;28;20035;-65
2022/12/05 10:27:13;;;;;;;9.65;5.93;;;5.60;99.90;;;;;;5094673;28;20455;-65
2022/12/05 10:29:51;;;;;;;10.53;6.00;;;5.60;99.90;;;;;;5124263;27;20046;-65
2022/12/05 10:32:30;;;;;;;7.85;5.40;;;5.60;99.90;;;;;;5128085;27;20301;-66
2022/12/05 10:35:13;;;;;;;9.43;5.97;;;5.60;99.90;;;;;;5113105;28;20039;-65
2022/12/05 10:37:43;;;;;;;8.05;5.60;;;5.60;99.90;;;;;;5094872;28;20032;-65
2022/12/05 10:40:11;;;;;;;10.25;5.60;;;5.60;99.90;;;;;;5077693;28;20154;-64
2022/12/05 10:42:37;;;;;;;8.68;5.85;;;5.60;99.90;;;;;;5077339;28;20040;-65
2022/12/05 10:45:06;;;;;;;9.30;5.57;;;5.60;99.90;;;;;;5095480;28;20122;-66
2022/12/05 10:47:32;;;;;;;10.80;5.97;;;5.60;99.90;;;;;;5093617;28;20402;-66
2022/12/05 10:50:06;;;;;;;10.32;6.50;;;5.60;99.90;;;;;;5094749;28;20047;-67
2022/12/05 10:52:32;;;;;;;10.50;6.20;;;5.60;99.90;;;;;;5127277;27;20040;-66
2022/12/05 10:55:05;;;;;;;8.82;6.18;;;5.50;99.90;;;;;;5127252;27;20122;-66
2022/12/05 10:57:30;;;;;;;9.50;5.95;;;5.60;99.90;;;;;;5128583;27;20072;-66
2022/12/05 10:59:57;;;;;;;8.95;5.93;;;5.60;99.90;;;;;;5090075;28;20036;-66
2022/12/05 11:02:29;;;;;;;8.57;5.53;;;5.60;99.90;;;;;;5128292;27;20042;-65
2022/12/05 11:04:57;;;;;;;10.57;5.75;;;5.60;99.90;;;;;;5111319;28;20122;-67
2022/12/05 11:07:47;;;;;;;8.00;5.80;;;5.60;99.90;;;;;;5127287;27;20633;-66
2022/12/05 11:10:34;;;;;;;8.25;5.35;;;5.60;99.90;;;;;;5074359;28;20044;-67
2022/12/05 11:13:01;;;;;;;8.52;5.57;;;5.60;99.90;;;;;;5129799;27;20057;-66
2022/12/05 11:15:30;;;;;;;8.55;5.13;;;5.60;99.90;;;;;;5094205;28;20047;-66
2022/12/05 11:18:16;;;;;;;11.65;5.82;;;5.60;99.90;;;;;;5093153;28;20505;-67
2022/12/05 11:20:42;;;;;;;8.45;5.15;;;5.60;99.90;;;;;;5110941;27;20031;-65
2022/12/05 11:23:28;;;;;;;8.65;5.00;;;5.60;99.90;;;;;;5094285;28;20052;-68
2022/12/05 11:25:56;;;;;;;7.25;5.18;;;5.60;99.90;;;;;;5129520;27;20036;-65
2022/12/05 11:28:28;;;;;;;7.80;4.90;;;5.60;99.90;;;;;;5128307;27;20043;-66
2022/12/05 11:30:57;;;;;;;6.18;4.53;;;5.60;99.90;;;;;;5092761;28;20071;-66
2022/12/05 11:33:26;;;;;;;7.22;5.00;;;5.70;99.90;;;;;;5128301;27;20050;-66
2022/12/05 11:35:56;;;;;;;7.72;5.38;;;5.70;99.90;;;;;;5093485;28;20044;-66
2022/12/05 11:38:26;;;;;;;7.68;5.45;;;5.70;99.90;;;;;;5127957;27;20044;-67
2022/12/05 11:41:07;;;;;;;6.15;4.90;;;5.70;99.90;;;;;;5094014;28;20560;-66
2022/12/05 11:44:15;;;;;;;7.45;4.95;;;5.60;99.90;;;;;;5093912;28;20048;-66
2022/12/05 11:47:09;;;;;;;8.02;5.40;;;5.70;99.90;;;;;;5075503;28;20043;-67
2022/12/05 11:50:15;;;;;;;9.10;5.97;;;5.70;99.90;;;;;;5125648;27;20052;-66
2022/12/05 11:52:55;;;;;;;10.45;5.85;;;5.60;99.90;;;;;;5093276;28;20047;-67
2022/12/05 11:55:33;;;;;;;7.60;5.68;;;5.60;99.90;;;;;;5127517;27;20043;-66
2022/12/05 11:58:12;;;;;;;8.45;5.20;;;5.60;99.90;;;;;;5093303;28;20481;-66
2022/12/05 12:00:46;;;;;;;8.27;5.28;;;5.60;99.90;;;;;;5093420;28;20383;-66
2022/12/05 12:03:50;;;;;;;7.90;5.57;;;5.60;99.90;;;;;;5076265;28;20520;-66
2022/12/05 12:06:51;;;;;;;7.47;5.38;;;5.60;99.90;;;;;;5125732;27;20047;-67
2022/12/05 12:09:35;;;;;;;8.55;5.65;;;5.60;99.90;;;;;;5067324;28;20048;-67
2022/12/05 12:12:39;;;;;;;8.80;5.82;;;5.60;99.90;;;;;;5121925;27;20116;-65
2022/12/05 12:15:32;;;;;;;8.10;5.40;;;5.60;99.90;;;;;;5070582;28;20066;-64
2022/12/05 12:18:18;;;;;;;9.95;5.70;;;5.70;99.90;;;;;;5124732;27;20074;-64
2022/12/05 12:20:55;;;;;;;10.25;5.78;;;5.70;99.90;;;;;;5090510;27;20039;-64
2022/12/05 12:23:29;;;;;;;11.15;6.18;;;5.60;99.90;;;;;;5088156;28;20044;-65
2022/12/05 12:26:03;;;;;;;8.27;5.22;;;5.70;99.90;;;;;;5091046;27;20110;-65
2022/12/05 12:29:18;;;;;;;7.93;5.45;;;5.60;99.90;;;;;;5092747;28;20173;-63
2022/12/05 12:31:55;;;;;;;6.80;5.20;;;5.60;99.90;;;;;;5014860;28;20059;-63
2022/12/05 12:34:42;;;;;;;7.82;4.97;;;5.60;99.90;;;;;;5030498;28;20488;-64
2022/12/05 12:37:12;;;;;;;6.15;4.55;;;5.60;99.90;;;;;;5030526;28;20083;-64
2022/12/05 12:39:52;;;;;;;6.85;4.53;;;5.60;99.90;;;;;;5028901;28;20044;-65
2022/12/05 12:42:27;;;;;;;8.30;4.97;;;5.70;99.90;;;;;;5028140;28;20443;-64
2022/12/05 12:44:52;;;;;;;10.43;4.95;;;5.70;99.90;;;;;;5029635;28;20451;-65
2022/12/05 12:47:38;;;;;;;6.72;4.70;;;5.70;99.90;;;;;;5028673;28;20045;-65
2022/12/05 12:50:24;;;;;;;6.20;4.15;;;5.70;99.90;;;;;;5024425;28;20147;-67
2022/12/05 12:53:07;;;;;;;6.72;4.43;;;5.70;99.90;;;;;;5030572;28;20447;-66
2022/12/05 12:55:51;;;;;;;5.72;4.10;;;5.70;99.90;;;;;;5004925;28;20049;-66
2022/12/05 12:58:54;;;;;;;6.55;4.15;;;5.70;99.90;;;;;;5011430;28;20048;-67
2022/12/05 13:01:47;;;;;;;5.28;3.75;;;5.70;99.90;;;;;;5031003;28;20296;-66
2022/12/05 13:04:17;;;;;;;5.20;3.90;;;5.80;99.90;;;;;;5047159;28;20048;-65
2022/12/05 13:06:56;;;;;;;5.50;4.10;;;5.70;99.90;;;;;;5051730;28;20081;-67
2022/12/05 13:09:39;;;;;;;5.63;3.72;;;5.70;99.90;;;;;;5091198;28;20047;-67
2022/12/05 13:12:16;;;;;;;5.85;3.70;;;5.80;99.90;;;;;;5075156;28;20059;-67
2022/12/05 13:14:52;;;;;;;7.70;3.50;;;5.70;99.90;;;;;;5092266;28;20100;-65
2022/12/05 13:17:21;;;;;;;6.97;3.92;;;5.80;99.90;;;;;;5075421;28;20051;-66
2022/12/05 13:19:53;;;;;;;7.32;4.32;;;5.80;99.90;;;;;;5092310;28;20035;-66